sensor_id;sensor_type;location;lat;lon;timestamp;pressure;altitude;pressure_sealevel;temperature
14851;BMP180;7517;48.400;11.770;2022-07-29T00:01:26;96432.00;;;26.40
14851;BMP180;7517;48.400;11.770;2022-07-29T00:03:53;96428.00;;;26.40
14851;BMP180;7517;48.400;11.770;2022-07-29T00:06:20;96420.00;;;26.30
14851;BMP180;7517;48.400;11.770;2022-07-29T00:08:49;96422.00;;;26.30
14851;BMP180;7517;48.400;11.770;2022-07-29T00:11:16;96427.00;;;26.30
14851;BMP180;7517;48.400;11.770;2022-07-29T00:13:43;96421.00;;;26.30
14851;BMP180;7517;48.400;11.770;2022-07-29T00:16:10;96434.00;;;26.20
14851;BMP180;7517;48.400;11.770;2022-07-29T00:18:38;96434.00;;;26.20
14851;BMP180;7517;48.400;11.770;2022-07-29T00:21:05;96431.00;;;26.20
14851;BMP180;7517;48.400;11.770;2022-07-29T00:23:32;96426.00;;;26.20
14851;BMP180;7517;48.400;11.770;2022-07-29T00:26:00;96431.00;;;26.20
14851;BMP180;7517;48.400;11.770;2022-07-29T00:28:28;96426.00;;;26.20
14851;BMP180;7517;48.400;11.770;2022-07-29T00:30:55;96423.00;;;26.10
14851;BMP180;7517;48.400;11.770;2022-07-29T00:33:22;96412.00;;;26.10
14851;BMP180;7517;48.400;11.770;2022-07-29T00:35:49;96421.00;;;26.10
14851;BMP180;7517;48.400;11.770;2022-07-29T00:38:18;96413.00;;;26.10
14851;BMP180;7517;48.400;11.770;2022-07-29T00:40:53;96410.00;;;26.10
14851;BMP180;7517;48.400;11.770;2022-07-29T00:43:21;96406.00;;;26.10
14851;BMP180;7517;48.400;11.770;2022-07-29T00:45:51;96401.00;;;26.00
14851;BMP180;7517;48.400;11.770;2022-07-29T00:48:19;96402.00;;;26.00
14851;BMP180;7517;48.400;11.770;2022-07-29T00:50:50;96404.00;;;26.00
14851;BMP180;7517;48.400;11.770;2022-07-29T00:53:19;96395.00;;;26.00
14851;BMP180;7517;48.400;11.770;2022-07-29T00:55:46;96398.00;;;26.00
14851;BMP180;7517;48.400;11.770;2022-07-29T00:58:14;96396.00;;;25.90
14851;BMP180;7517;48.400;11.770;2022-07-29T01:00:43;96398.00;;;25.90
14851;BMP180;7517;48.400;11.770;2022-07-29T01:03:10;96402.00;;;25.90
14851;BMP180;7517;48.400;11.770;2022-07-29T01:05:39;96407.00;;;25.90
14851;BMP180;7517;48.400;11.770;2022-07-29T01:08:08;96408.00;;;25.80
14851;BMP180;7517;48.400;11.770;2022-07-29T01:10:38;96399.00;;;25.80
14851;BMP180;7517;48.400;11.770;2022-07-29T01:13:07;96393.00;;;25.80
14851;BMP180;7517;48.400;11.770;2022-07-29T01:15:53;96394.00;;;25.70
14851;BMP180;7517;48.400;11.770;2022-07-29T01:18:32;96393.00;;;25.70
14851;BMP180;7517;48.400;11.770;2022-07-29T01:21:40;96391.00;;;25.70
14851;BMP180;7517;48.400;11.770;2022-07-29T01:24:48;96381.00;;;25.60
14851;BMP180;7517;48.400;11.770;2022-07-29T01:27:47;96385.00;;;25.60
14851;BMP180;7517;48.400;11.770;2022-07-29T01:30:22;96384.00;;;25.50
14851;BMP180;7517;48.400;11.770;2022-07-29T01:32:59;96388.00;;;25.50
14851;BMP180;7517;48.400;11.770;2022-07-29T01:35:34;96387.00;;;25.50
14851;BMP180;7517;48.400;11.770;2022-07-29T01:38:12;96386.00;;;25.40
14851;BMP180;7517;48.400;11.770;2022-07-29T01:40:48;96393.00;;;25.40
14851;BMP180;7517;48.400;11.770;2022-07-29T01:43:27;96397.00;;;25.40
14851;BMP180;7517;48.400;11.770;2022-07-29T01:46:01;96392.00;;;25.40
14851;BMP180;7517;48.400;11.770;2022-07-29T01:48:39;96396.00;;;25.30
14851;BMP180;7517;48.400;11.770;2022-07-29T01:51:16;96391.00;;;25.30
14851;BMP180;7517;48.400;11.770;2022-07-29T01:53:51;96384.00;;;25.30
14851;BMP180;7517;48.400;11.770;2022-07-29T01:56:26;96369.00;;;25.20
14851;BMP180;7517;48.400;11.770;2022-07-29T01:58:57;96365.00;;;25.20
14851;BMP180;7517;48.400;11.770;2022-07-29T02:01:27;96363.00;;;25.20
14851;BMP180;7517;48.400;11.770;2022-07-29T02:03:58;96349.00;;;25.20
14851;BMP180;7517;48.400;11.770;2022-07-29T02:06:27;96358.00;;;25.20
14851;BMP180;7517;48.400;11.770;2022-07-29T02:08:58;96354.00;;;25.10
14851;BMP180;7517;48.400;11.770;2022-07-29T02:11:28;96346.00;;;25.10
14851;BMP180;7517;48.400;11.770;2022-07-29T02:14:04;96349.00;;;25.00
14851;BMP180;7517;48.400;11.770;2022-07-29T02:16:38;96341.00;;;25.00
14851;BMP180;7517;48.400;11.770;2022-07-29T02:19:08;96333.00;;;25.00
14851;BMP180;7517;48.400;11.770;2022-07-29T02:21:41;96340.00;;;24.90
14851;BMP180;7517;48.400;11.770;2022-07-29T02:24:12;96344.00;;;24.90
14851;BMP180;7517;48.400;11.770;2022-07-29T02:26:42;96331.00;;;24.80
14851;BMP180;7517;48.400;11.770;2022-07-29T02:29:12;96326.00;;;24.80
14851;BMP180;7517;48.400;11.770;2022-07-29T02:31:45;96330.00;;;24.80
14851;BMP180;7517;48.400;11.770;2022-07-29T02:34:18;96336.00;;;24.70
14851;BMP180;7517;48.400;11.770;2022-07-29T02:36:50;96335.00;;;24.70
14851;BMP180;7517;48.400;11.770;2022-07-29T02:39:19;96335.00;;;24.70
14851;BMP180;7517;48.400;11.770;2022-07-29T02:41:52;96341.00;;;24.70
14851;BMP180;7517;48.400;11.770;2022-07-29T02:44:34;96339.00;;;24.70
14851;BMP180;7517;48.400;11.770;2022-07-29T02:47:17;96338.00;;;24.70
14851;BMP180;7517;48.400;11.770;2022-07-29T02:49:57;96331.00;;;24.70
14851;BMP180;7517;48.400;11.770;2022-07-29T02:52:38;96331.00;;;24.70
14851;BMP180;7517;48.400;11.770;2022-07-29T02:55:22;96330.00;;;24.70
14851;BMP180;7517;48.400;11.770;2022-07-29T02:57:59;96327.00;;;24.70
14851;BMP180;7517;48.400;11.770;2022-07-29T03:00:30;96332.00;;;24.60
14851;BMP180;7517;48.400;11.770;2022-07-29T03:03:04;96327.00;;;24.60
14851;BMP180;7517;48.400;11.770;2022-07-29T03:05:32;96327.00;;;24.60
14851;BMP180;7517;48.400;11.770;2022-07-29T03:08:05;96331.00;;;24.60
14851;BMP180;7517;48.400;11.770;2022-07-29T03:10:37;96336.00;;;24.60
14851;BMP180;7517;48.400;11.770;2022-07-29T03:13:07;96330.00;;;24.60
14851;BMP180;7517;48.400;11.770;2022-07-29T03:15:38;96334.00;;;24.60
14851;BMP180;7517;48.400;11.770;2022-07-29T03:18:19;96339.00;;;24.60
14851;BMP180;7517;48.400;11.770;2022-07-29T03:20:50;96342.00;;;24.60
14851;BMP180;7517;48.400;11.770;2022-07-29T03:23:19;96343.00;;;24.60
14851;BMP180;7517;48.400;11.770;2022-07-29T03:25:53;96337.00;;;24.50
14851;BMP180;7517;48.400;11.770;2022-07-29T03:28:20;96344.00;;;24.50
14851;BMP180;7517;48.400;11.770;2022-07-29T03:30:49;96337.00;;;24.50
14851;BMP180;7517;48.400;11.770;2022-07-29T03:33:22;96348.00;;;24.50
14851;BMP180;7517;48.400;11.770;2022-07-29T03:35:50;96347.00;;;24.50
14851;BMP180;7517;48.400;11.770;2022-07-29T03:38:17;96343.00;;;24.50
14851;BMP180;7517;48.400;11.770;2022-07-29T03:40:51;96350.00;;;24.40
14851;BMP180;7517;48.400;11.770;2022-07-29T03:43:21;96338.00;;;24.40
14851;BMP180;7517;48.400;11.770;2022-07-29T03:45:54;96339.00;;;24.40
14851;BMP180;7517;48.400;11.770;2022-07-29T03:48:25;96333.00;;;24.40
14851;BMP180;7517;48.400;11.770;2022-07-29T03:50:53;96335.00;;;24.30
14851;BMP180;7517;48.400;11.770;2022-07-29T03:53:21;96340.00;;;24.30
14851;BMP180;7517;48.400;11.770;2022-07-29T03:55:58;96341.00;;;24.30
14851;BMP180;7517;48.400;11.770;2022-07-29T03:58:33;96344.00;;;24.30
14851;BMP180;7517;48.400;11.770;2022-07-29T04:01:10;96342.00;;;24.20
14851;BMP180;7517;48.400;11.770;2022-07-29T04:03:40;96340.00;;;24.20
14851;BMP180;7517;48.400;11.770;2022-07-29T04:06:08;96338.00;;;24.20
14851;BMP180;7517;48.400;11.770;2022-07-29T04:08:35;96341.00;;;24.20
14851;BMP180;7517;48.400;11.770;2022-07-29T04:11:03;96347.00;;;24.20
14851;BMP180;7517;48.400;11.770;2022-07-29T04:13:31;96340.00;;;24.10
14851;BMP180;7517;48.400;11.770;2022-07-29T04:15:59;96344.00;;;24.10
14851;BMP180;7517;48.400;11.770;2022-07-29T04:18:26;96344.00;;;24.10
14851;BMP180;7517;48.400;11.770;2022-07-29T04:20:55;96343.00;;;24.00
14851;BMP180;7517;48.400;11.770;2022-07-29T04:23:24;96343.00;;;24.00
14851;BMP180;7517;48.400;11.770;2022-07-29T04:25:52;96347.00;;;23.90
14851;BMP180;7517;48.400;11.770;2022-07-29T04:28:19;96347.00;;;23.90
14851;BMP180;7517;48.400;11.770;2022-07-29T04:30:48;96344.00;;;23.90
14851;BMP180;7517;48.400;11.770;2022-07-29T04:33:16;96348.00;;;23.90
14851;BMP180;7517;48.400;11.770;2022-07-29T04:35:44;96352.00;;;23.80
14851;BMP180;7517;48.400;11.770;2022-07-29T04:38:12;96346.00;;;23.80
14851;BMP180;7517;48.400;11.770;2022-07-29T04:40:39;96350.00;;;23.80
14851;BMP180;7517;48.400;11.770;2022-07-29T04:43:07;96353.00;;;23.80
14851;BMP180;7517;48.400;11.770;2022-07-29T04:45:34;96353.00;;;23.80
14851;BMP180;7517;48.400;11.770;2022-07-29T04:48:01;96349.00;;;23.80
14851;BMP180;7517;48.400;11.770;2022-07-29T04:50:28;96351.00;;;23.80
14851;BMP180;7517;48.400;11.770;2022-07-29T04:52:56;96340.00;;;23.80
14851;BMP180;7517;48.400;11.770;2022-07-29T04:55:24;96344.00;;;23.80
14851;BMP180;7517;48.400;11.770;2022-07-29T04:57:52;96348.00;;;23.80
14851;BMP180;7517;48.400;11.770;2022-07-29T05:00:19;96352.00;;;23.80
14851;BMP180;7517;48.400;11.770;2022-07-29T05:02:48;96344.00;;;23.80
14851;BMP180;7517;48.400;11.770;2022-07-29T05:05:16;96351.00;;;23.80
14851;BMP180;7517;48.400;11.770;2022-07-29T05:07:45;96354.00;;;23.80
14851;BMP180;7517;48.400;11.770;2022-07-29T05:10:12;96362.00;;;23.80
14851;BMP180;7517;48.400;11.770;2022-07-29T05:12:44;96355.00;;;23.80
14851;BMP180;7517;48.400;11.770;2022-07-29T05:15:11;96357.00;;;23.80
14851;BMP180;7517;48.400;11.770;2022-07-29T05:17:43;96359.00;;;23.80
14851;BMP180;7517;48.400;11.770;2022-07-29T05:20:11;96370.00;;;23.80
14851;BMP180;7517;48.400;11.770;2022-07-29T05:22:38;96366.00;;;23.80
14851;BMP180;7517;48.400;11.770;2022-07-29T05:25:07;96367.00;;;23.80
14851;BMP180;7517;48.400;11.770;2022-07-29T05:27:37;96368.00;;;23.80
14851;BMP180;7517;48.400;11.770;2022-07-29T05:30:07;96362.00;;;23.80
14851;BMP180;7517;48.400;11.770;2022-07-29T05:32:34;96372.00;;;23.90
14851;BMP180;7517;48.400;11.770;2022-07-29T05:35:02;96380.00;;;23.90
14851;BMP180;7517;48.400;11.770;2022-07-29T05:37:33;96386.00;;;23.90
14851;BMP180;7517;48.400;11.770;2022-07-29T05:40:00;96378.00;;;23.90
14851;BMP180;7517;48.400;11.770;2022-07-29T05:42:27;96381.00;;;24.00
14851;BMP180;7517;48.400;11.770;2022-07-29T05:44:55;96388.00;;;24.00
14851;BMP180;7517;48.400;11.770;2022-07-29T05:47:25;96383.00;;;24.00
14851;BMP180;7517;48.400;11.770;2022-07-29T05:49:55;96389.00;;;24.00
14851;BMP180;7517;48.400;11.770;2022-07-29T05:52:25;96391.00;;;24.00
14851;BMP180;7517;48.400;11.770;2022-07-29T05:54:52;96386.00;;;24.10
14851;BMP180;7517;48.400;11.770;2022-07-29T05:57:21;96385.00;;;24.10
14851;BMP180;7517;48.400;11.770;2022-07-29T05:59:50;96388.00;;;24.10
14851;BMP180;7517;48.400;11.770;2022-07-29T06:02:17;96390.00;;;24.10
14851;BMP180;7517;48.400;11.770;2022-07-29T06:04:46;96390.00;;;24.10
14851;BMP180;7517;48.400;11.770;2022-07-29T06:07:16;96398.00;;;24.10
14851;BMP180;7517;48.400;11.770;2022-07-29T06:09:43;96397.00;;;24.10
14851;BMP180;7517;48.400;11.770;2022-07-29T06:12:10;96400.00;;;24.20
14851;BMP180;7517;48.400;11.770;2022-07-29T06:14:38;96400.00;;;24.20
14851;BMP180;7517;48.400;11.770;2022-07-29T06:17:10;96408.00;;;24.20
14851;BMP180;7517;48.400;11.770;2022-07-29T06:19:38;96403.00;;;24.20
14851;BMP180;7517;48.400;11.770;2022-07-29T06:22:07;96408.00;;;24.30
14851;BMP180;7517;48.400;11.770;2022-07-29T06:24:36;96413.00;;;24.30
14851;BMP180;7517;48.400;11.770;2022-07-29T06:27:09;96400.00;;;24.30
14851;BMP180;7517;48.400;11.770;2022-07-29T06:29:41;96406.00;;;24.40
14851;BMP180;7517;48.400;11.770;2022-07-29T06:32:09;96404.00;;;24.40
14851;BMP180;7517;48.400;11.770;2022-07-29T06:34:38;96410.00;;;24.40
14851;BMP180;7517;48.400;11.770;2022-07-29T06:37:09;96402.00;;;24.50
14851;BMP180;7517;48.400;11.770;2022-07-29T06:39:37;96398.00;;;24.50
14851;BMP180;7517;48.400;11.770;2022-07-29T06:42:05;96397.00;;;24.50
14851;BMP180;7517;48.400;11.770;2022-07-29T06:44:32;96397.00;;;24.60
14851;BMP180;7517;48.400;11.770;2022-07-29T06:47:00;96399.00;;;24.70
14851;BMP180;7517;48.400;11.770;2022-07-29T06:49:27;96399.00;;;24.70
14851;BMP180;7517;48.400;11.770;2022-07-29T06:51:55;96399.00;;;24.80
14851;BMP180;7517;48.400;11.770;2022-07-29T06:54:23;96399.00;;;24.80
14851;BMP180;7517;48.400;11.770;2022-07-29T06:56:50;96395.00;;;24.90
14851;BMP180;7517;48.400;11.770;2022-07-29T06:59:18;96398.00;;;25.00
14851;BMP180;7517;48.400;11.770;2022-07-29T07:01:45;96398.00;;;25.00
14851;BMP180;7517;48.400;11.770;2022-07-29T07:04:12;96400.00;;;25.00
14851;BMP180;7517;48.400;11.770;2022-07-29T07:06:40;96406.00;;;25.10
14851;BMP180;7517;48.400;11.770;2022-07-29T07:09:07;96402.00;;;25.20
14851;BMP180;7517;48.400;11.770;2022-07-29T07:11:35;96407.00;;;25.30
14851;BMP180;7517;48.400;11.770;2022-07-29T07:14:03;96414.00;;;25.40
14851;BMP180;7517;48.400;11.770;2022-07-29T07:16:30;96408.00;;;25.50
14851;BMP180;7517;48.400;11.770;2022-07-29T07:18:58;96418.00;;;25.60
14851;BMP180;7517;48.400;11.770;2022-07-29T07:21:25;96418.00;;;25.80
14851;BMP180;7517;48.400;11.770;2022-07-29T07:23:52;96411.00;;;26.00
14851;BMP180;7517;48.400;11.770;2022-07-29T07:26:19;96414.00;;;26.10
14851;BMP180;7517;48.400;11.770;2022-07-29T07:28:47;96414.00;;;26.30
14851;BMP180;7517;48.400;11.770;2022-07-29T07:31:15;96416.00;;;26.50
14851;BMP180;7517;48.400;11.770;2022-07-29T07:33:42;96414.00;;;26.60
14851;BMP180;7517;48.400;11.770;2022-07-29T07:36:09;96416.00;;;26.80
14851;BMP180;7517;48.400;11.770;2022-07-29T07:38:36;96416.00;;;27.00
14851;BMP180;7517;48.400;11.770;2022-07-29T07:41:03;96411.00;;;27.20
14851;BMP180;7517;48.400;11.770;2022-07-29T07:43:31;96415.00;;;27.30
14851;BMP180;7517;48.400;11.770;2022-07-29T07:45:59;96410.00;;;27.50
14851;BMP180;7517;48.400;11.770;2022-07-29T07:48:26;96413.00;;;27.70
14851;BMP180;7517;48.400;11.770;2022-07-29T07:50:54;96412.00;;;27.90
14851;BMP180;7517;48.400;11.770;2022-07-29T07:53:21;96408.00;;;28.00
14851;BMP180;7517;48.400;11.770;2022-07-29T07:55:48;96410.00;;;28.20
14851;BMP180;7517;48.400;11.770;2022-07-29T07:58:15;96408.00;;;28.30
14851;BMP180;7517;48.400;11.770;2022-07-29T08:00:42;96398.00;;;28.50
14851;BMP180;7517;48.400;11.770;2022-07-29T08:03:11;96404.00;;;28.60
14851;BMP180;7517;48.400;11.770;2022-07-29T08:05:39;96404.00;;;28.80
14851;BMP180;7517;48.400;11.770;2022-07-29T08:08:07;96410.00;;;28.90
14851;BMP180;7517;48.400;11.770;2022-07-29T08:10:34;96404.00;;;29.10
14851;BMP180;7517;48.400;11.770;2022-07-29T08:13:23;96408.00;;;29.20
14851;BMP180;7517;48.400;11.770;2022-07-29T08:15:51;96411.00;;;29.40
14851;BMP180;7517;48.400;11.770;2022-07-29T08:18:25;96408.00;;;29.50
14851;BMP180;7517;48.400;11.770;2022-07-29T08:20:52;96417.00;;;29.60
14851;BMP180;7517;48.400;11.770;2022-07-29T08:23:20;96410.00;;;29.80
14851;BMP180;7517;48.400;11.770;2022-07-29T08:25:48;96413.00;;;29.90
14851;BMP180;7517;48.400;11.770;2022-07-29T08:28:16;96419.00;;;30.00
14851;BMP180;7517;48.400;11.770;2022-07-29T08:30:45;96410.00;;;30.10
14851;BMP180;7517;48.400;11.770;2022-07-29T08:33:12;96414.00;;;30.20
14851;BMP180;7517;48.400;11.770;2022-07-29T08:35:41;96414.00;;;30.30
14851;BMP180;7517;48.400;11.770;2022-07-29T08:38:08;96410.00;;;30.50
14851;BMP180;7517;48.400;11.770;2022-07-29T08:40:35;96422.00;;;30.60
14851;BMP180;7517;48.400;11.770;2022-07-29T08:43:07;96422.00;;;30.70
14851;BMP180;7517;48.400;11.770;2022-07-29T08:45:44;96428.00;;;30.80
14851;BMP180;7517;48.400;11.770;2022-07-29T08:48:12;96429.00;;;31.00
14851;BMP180;7517;48.400;11.770;2022-07-29T08:50:42;96434.00;;;31.10
14851;BMP180;7517;48.400;11.770;2022-07-29T08:53:13;96429.00;;;31.30
14851;BMP180;7517;48.400;11.770;2022-07-29T08:55:42;96426.00;;;31.40
14851;BMP180;7517;48.400;11.770;2022-07-29T08:58:11;96428.00;;;31.50
14851;BMP180;7517;48.400;11.770;2022-07-29T09:00:44;96432.00;;;31.70
14851;BMP180;7517;48.400;11.770;2022-07-29T09:03:18;96429.00;;;31.80
14851;BMP180;7517;48.400;11.770;2022-07-29T09:05:48;96435.00;;;32.00
14851;BMP180;7517;48.400;11.770;2022-07-29T09:08:16;96436.00;;;32.10
14851;BMP180;7517;48.400;11.770;2022-07-29T09:10:44;96432.00;;;32.30
14851;BMP180;7517;48.400;11.770;2022-07-29T09:13:12;96421.00;;;32.40
14851;BMP180;7517;48.400;11.770;2022-07-29T09:15:39;96432.00;;;32.60
14851;BMP180;7517;48.400;11.770;2022-07-29T09:18:06;96429.00;;;32.70
14851;BMP180;7517;48.400;11.770;2022-07-29T09:20:33;96421.00;;;32.80
14851;BMP180;7517;48.400;11.770;2022-07-29T09:23:16;96421.00;;;33.00
14851;BMP180;7517;48.400;11.770;2022-07-29T09:25:43;96421.00;;;33.10
14851;BMP180;7517;48.400;11.770;2022-07-29T09:28:13;96421.00;;;33.20
14851;BMP180;7517;48.400;11.770;2022-07-29T09:30:50;96430.00;;;33.30
14851;BMP180;7517;48.400;11.770;2022-07-29T09:33:20;96434.00;;;33.40
14851;BMP180;7517;48.400;11.770;2022-07-29T09:35:59;96430.00;;;33.60
14851;BMP180;7517;48.400;11.770;2022-07-29T09:38:30;96430.00;;;33.70
14851;BMP180;7517;48.400;11.770;2022-07-29T09:40:58;96424.00;;;33.70
14851;BMP180;7517;48.400;11.770;2022-07-29T09:43:26;96423.00;;;33.70
14851;BMP180;7517;48.400;11.770;2022-07-29T09:45:54;96419.00;;;33.80
14851;BMP180;7517;48.400;11.770;2022-07-29T09:48:24;96413.00;;;33.90
14851;BMP180;7517;48.400;11.770;2022-07-29T09:50:51;96422.00;;;34.00
14851;BMP180;7517;48.400;11.770;2022-07-29T09:53:37;96412.00;;;34.00
14851;BMP180;7517;48.400;11.770;2022-07-29T09:56:05;96412.00;;;34.00
14851;BMP180;7517;48.400;11.770;2022-07-29T09:58:33;96422.00;;;34.10
14851;BMP180;7517;48.400;11.770;2022-07-29T10:01:01;96413.00;;;34.00
14851;BMP180;7517;48.400;11.770;2022-07-29T10:03:28;96412.00;;;34.00
14851;BMP180;7517;48.400;11.770;2022-07-29T10:06:07;96410.00;;;34.00
14851;BMP180;7517;48.400;11.770;2022-07-29T10:08:37;96404.00;;;34.00
14851;BMP180;7517;48.400;11.770;2022-07-29T10:11:14;96405.00;;;34.00
14851;BMP180;7517;48.400;11.770;2022-07-29T10:13:44;96415.00;;;34.00
14851;BMP180;7517;48.400;11.770;2022-07-29T10:16:14;96413.00;;;33.90
14851;BMP180;7517;48.400;11.770;2022-07-29T10:18:42;96427.00;;;33.90
14851;BMP180;7517;48.400;11.770;2022-07-29T10:21:10;96418.00;;;33.80
14851;BMP180;7517;48.400;11.770;2022-07-29T10:23:39;96418.00;;;33.90
14851;BMP180;7517;48.400;11.770;2022-07-29T10:26:10;96426.00;;;33.90
14851;BMP180;7517;48.400;11.770;2022-07-29T10:28:37;96416.00;;;34.00
14851;BMP180;7517;48.400;11.770;2022-07-29T10:31:08;96414.00;;;34.00
14851;BMP180;7517;48.400;11.770;2022-07-29T10:33:55;96411.00;;;34.10
14851;BMP180;7517;48.400;11.770;2022-07-29T10:36:43;96416.00;;;34.20
14851;BMP180;7517;48.400;11.770;2022-07-29T10:39:32;96421.00;;;34.20
14851;BMP180;7517;48.400;11.770;2022-07-29T10:42:13;96419.00;;;34.30
14851;BMP180;7517;48.400;11.770;2022-07-29T10:44:43;96412.00;;;34.40
14851;BMP180;7517;48.400;11.770;2022-07-29T10:47:21;96419.00;;;34.50
14851;BMP180;7517;48.400;11.770;2022-07-29T10:49:57;96424.00;;;34.50
14851;BMP180;7517;48.400;11.770;2022-07-29T10:52:54;96423.00;;;34.50
14851;BMP180;7517;48.400;11.770;2022-07-29T10:55:39;96414.00;;;34.40
14851;BMP180;7517;48.400;11.770;2022-07-29T10:58:13;96413.00;;;34.30
14851;BMP180;7517;48.400;11.770;2022-07-29T11:00:41;96425.00;;;34.30
14851;BMP180;7517;48.400;11.770;2022-07-29T11:03:08;96419.00;;;34.20
14851;BMP180;7517;48.400;11.770;2022-07-29T11:05:56;96415.00;;;34.10
14851;BMP180;7517;48.400;11.770;2022-07-29T11:08:24;96412.00;;;34.00
14851;BMP180;7517;48.400;11.770;2022-07-29T11:13:52;96401.00;;;33.90
14851;BMP180;7517;48.400;11.770;2022-07-29T11:16:22;96401.00;;;33.90
14851;BMP180;7517;48.400;11.770;2022-07-29T11:19:22;96404.00;;;33.80
14851;BMP180;7517;48.400;11.770;2022-07-29T11:21:49;96411.00;;;33.70
14851;BMP180;7517;48.400;11.770;2022-07-29T11:24:21;96410.00;;;33.70
14851;BMP180;7517;48.400;11.770;2022-07-29T11:27:14;96411.00;;;33.60
14851;BMP180;7517;48.400;11.770;2022-07-29T11:29:52;96415.00;;;33.60
14851;BMP180;7517;48.400;11.770;2022-07-29T11:32:20;96409.00;;;33.60
14851;BMP180;7517;48.400;11.770;2022-07-29T11:34:49;96402.00;;;33.50
14851;BMP180;7517;48.400;11.770;2022-07-29T11:37:21;96408.00;;;33.50
14851;BMP180;7517;48.400;11.770;2022-07-29T11:40:16;96394.00;;;33.40
14851;BMP180;7517;48.400;11.770;2022-07-29T11:42:50;96391.00;;;33.40
14851;BMP180;7517;48.400;11.770;2022-07-29T11:45:45;96401.00;;;33.30
14851;BMP180;7517;48.400;11.770;2022-07-29T11:48:17;96392.00;;;33.20
14851;BMP180;7517;48.400;11.770;2022-07-29T11:50:45;96386.00;;;33.10
14851;BMP180;7517;48.400;11.770;2022-07-29T11:53:13;96384.00;;;33.00
14851;BMP180;7517;48.400;11.770;2022-07-29T11:55:41;96380.00;;;32.90
14851;BMP180;7517;48.400;11.770;2022-07-29T11:58:09;96376.00;;;32.80
14851;BMP180;7517;48.400;11.770;2022-07-29T12:00:38;96381.00;;;32.80
14851;BMP180;7517;48.400;11.770;2022-07-29T12:03:08;96384.00;;;32.70
14851;BMP180;7517;48.400;11.770;2022-07-29T12:05:41;96381.00;;;32.70
14851;BMP180;7517;48.400;11.770;2022-07-29T12:08:17;96378.00;;;32.60
14851;BMP180;7517;48.400;11.770;2022-07-29T12:10:46;96374.00;;;32.60
14851;BMP180;7517;48.400;11.770;2022-07-29T12:13:17;96375.00;;;32.60
14851;BMP180;7517;48.400;11.770;2022-07-29T12:15:53;96371.00;;;32.60
14851;BMP180;7517;48.400;11.770;2022-07-29T12:18:20;96369.00;;;32.60
14851;BMP180;7517;48.400;11.770;2022-07-29T12:20:48;96386.00;;;32.60
14851;BMP180;7517;48.400;11.770;2022-07-29T12:23:16;96374.00;;;32.70
14851;BMP180;7517;48.400;11.770;2022-07-29T12:25:44;96382.00;;;32.70
14851;BMP180;7517;48.400;11.770;2022-07-29T12:28:13;96365.00;;;32.80
14851;BMP180;7517;48.400;11.770;2022-07-29T12:30:45;96371.00;;;32.80
14851;BMP180;7517;48.400;11.770;2022-07-29T12:33:18;96366.00;;;32.80
14851;BMP180;7517;48.400;11.770;2022-07-29T12:35:49;96372.00;;;32.90
14851;BMP180;7517;48.400;11.770;2022-07-29T12:38:17;96363.00;;;32.90
14851;BMP180;7517;48.400;11.770;2022-07-29T12:40:47;96363.00;;;32.90
14851;BMP180;7517;48.400;11.770;2022-07-29T12:43:17;96359.00;;;32.90
14851;BMP180;7517;48.400;11.770;2022-07-29T12:45:49;96364.00;;;33.00
14851;BMP180;7517;48.400;11.770;2022-07-29T12:48:18;96364.00;;;33.00
14851;BMP180;7517;48.400;11.770;2022-07-29T12:51:01;96358.00;;;33.10
14851;BMP180;7517;48.400;11.770;2022-07-29T12:53:29;96361.00;;;33.10
14851;BMP180;7517;48.400;11.770;2022-07-29T12:55:58;96366.00;;;33.20
14851;BMP180;7517;48.400;11.770;2022-07-29T12:58:30;96350.00;;;33.20
14851;BMP180;7517;48.400;11.770;2022-07-29T13:01:07;96351.00;;;33.30
14851;BMP180;7517;48.400;11.770;2022-07-29T13:03:46;96360.00;;;33.30
14851;BMP180;7517;48.400;11.770;2022-07-29T13:06:34;96348.00;;;33.20
14851;BMP180;7517;48.400;11.770;2022-07-29T13:09:05;96350.00;;;33.20
14851;BMP180;7517;48.400;11.770;2022-07-29T13:11:35;96340.00;;;33.10
14851;BMP180;7517;48.400;11.770;2022-07-29T13:14:05;96340.00;;;33.00
14851;BMP180;7517;48.400;11.770;2022-07-29T13:17:03;96338.00;;;33.00
14851;BMP180;7517;48.400;11.770;2022-07-29T13:19:36;96344.00;;;32.90
14851;BMP180;7517;48.400;11.770;2022-07-29T13:22:14;96337.00;;;32.90
14851;BMP180;7517;48.400;11.770;2022-07-29T13:24:49;96337.00;;;32.80
14851;BMP180;7517;48.400;11.770;2022-07-29T13:27:18;96334.00;;;32.80
14851;BMP180;7517;48.400;11.770;2022-07-29T13:29:46;96339.00;;;32.70
14851;BMP180;7517;48.400;11.770;2022-07-29T13:32:15;96336.00;;;32.70
14851;BMP180;7517;48.400;11.770;2022-07-29T13:34:43;96341.00;;;32.70
14851;BMP180;7517;48.400;11.770;2022-07-29T13:37:10;96348.00;;;32.80
14851;BMP180;7517;48.400;11.770;2022-07-29T13:39:37;96343.00;;;32.80
14851;BMP180;7517;48.400;11.770;2022-07-29T13:42:06;96334.00;;;32.80
14851;BMP180;7517;48.400;11.770;2022-07-29T13:44:34;96340.00;;;32.80
14851;BMP180;7517;48.400;11.770;2022-07-29T13:47:02;96333.00;;;32.70
14851;BMP180;7517;48.400;11.770;2022-07-29T13:49:30;96342.00;;;32.70
14851;BMP180;7517;48.400;11.770;2022-07-29T13:51:57;96332.00;;;32.70
14851;BMP180;7517;48.400;11.770;2022-07-29T13:54:25;96332.00;;;32.60
14851;BMP180;7517;48.400;11.770;2022-07-29T13:56:52;96328.00;;;32.60
14851;BMP180;7517;48.400;11.770;2022-07-29T13:59:19;96338.00;;;32.60
14851;BMP180;7517;48.400;11.770;2022-07-29T14:01:47;96328.00;;;32.50
14851;BMP180;7517;48.400;11.770;2022-07-29T14:04:14;96327.00;;;32.40
14851;BMP180;7517;48.400;11.770;2022-07-29T14:06:43;96326.00;;;32.40
14851;BMP180;7517;48.400;11.770;2022-07-29T14:09:10;96321.00;;;32.30
14851;BMP180;7517;48.400;11.770;2022-07-29T14:11:38;96321.00;;;32.30
14851;BMP180;7517;48.400;11.770;2022-07-29T14:14:05;96321.00;;;32.20
14851;BMP180;7517;48.400;11.770;2022-07-29T14:16:36;96306.00;;;32.20
14851;BMP180;7517;48.400;11.770;2022-07-29T14:19:03;96310.00;;;32.20
14851;BMP180;7517;48.400;11.770;2022-07-29T14:21:33;96304.00;;;32.20
14851;BMP180;7517;48.400;11.770;2022-07-29T14:24:03;96307.00;;;32.20
14851;BMP180;7517;48.400;11.770;2022-07-29T14:26:30;96305.00;;;32.20
14851;BMP180;7517;48.400;11.770;2022-07-29T14:28:57;96295.00;;;32.10
14851;BMP180;7517;48.400;11.770;2022-07-29T14:31:25;96299.00;;;32.10
14851;BMP180;7517;48.400;11.770;2022-07-29T14:33:54;96296.00;;;32.10